createdAt,value
2023-09-06T00:00:47.605Z,21.99
2023-09-06T00:03:00.392Z,21.91
2023-09-06T00:04:56.370Z,21.86
2023-09-06T00:06:53.630Z,21.79
2023-09-06T00:08:46.861Z,21.80
2023-09-06T00:10:42.462Z,21.86
2023-09-06T00:12:37.881Z,21.78
2023-09-06T00:14:38.227Z,21.64
2023-09-06T00:16:33.716Z,21.58
2023-09-06T00:18:29.098Z,21.58
2023-09-06T00:20:22.218Z,21.54
2023-09-06T00:22:21.447Z,21.34
2023-09-06T00:24:15.936Z,21.29
2023-09-06T00:26:11.365Z,21.23
2023-09-06T00:28:05.670Z,21.31
2023-09-06T00:30:03.341Z,21.33
2023-09-06T00:31:58.851Z,21.22
2023-09-06T00:33:54.009Z,21.24
2023-09-06T00:35:49.785Z,21.15
2023-09-06T00:37:45.151Z,21.29
2023-09-06T00:39:40.534Z,21.31
2023-09-06T00:41:36.226Z,21.25
2023-09-06T00:43:30.202Z,21.20
2023-09-06T00:45:28.192Z,21.28
2023-09-06T00:47:23.975Z,21.28
2023-09-06T00:49:19.337Z,21.24
2023-09-06T00:51:15.065Z,21.30
2023-09-06T00:53:08.679Z,21.32
2023-09-06T00:55:04.689Z,21.27
2023-09-06T00:57:00.588Z,21.08
2023-09-06T00:58:56.274Z,21.05
2023-09-06T01:00:52.049Z,21.10
2023-09-06T01:02:48.661Z,21.13
2023-09-06T01:04:44.949Z,21.14
2023-09-06T01:06:44.163Z,21.13
2023-09-06T01:08:43.382Z,21.09
2023-09-06T01:10:36.205Z,21.05
2023-09-06T01:12:32.264Z,20.99
2023-09-06T01:14:27.682Z,20.96
2023-09-06T01:16:27.823Z,20.97
2023-09-06T01:18:26.452Z,21.01
2023-09-06T01:20:32.767Z,20.99
2023-09-06T01:22:35.528Z,20.98
2023-09-06T01:24:33.616Z,20.97
2023-09-06T01:26:30.073Z,20.86
2023-09-06T01:28:28.640Z,20.83
2023-09-06T01:30:24.345Z,20.78
2023-09-06T01:32:20.350Z,20.84
2023-09-06T01:34:12.888Z,20.85
2023-09-06T01:36:08.623Z,20.84
2023-09-06T01:38:01.452Z,20.84
2023-09-06T01:39:59.183Z,20.78
2023-09-06T01:41:52.067Z,20.63
2023-09-06T01:43:47.448Z,20.67
2023-09-06T01:45:52.277Z,20.65
2023-09-06T01:47:49.543Z,20.68
2023-09-06T01:49:46.383Z,20.67
2023-09-06T01:51:41.780Z,20.63
2023-09-06T01:53:36.854Z,20.54
2023-09-06T01:55:31.986Z,20.45
2023-09-06T01:57:27.397Z,20.34
2023-09-06T01:59:22.449Z,20.27
2023-09-06T02:01:15.447Z,20.22
2023-09-06T02:03:11.820Z,20.16
2023-09-06T02:05:04.700Z,20.11
2023-09-06T02:07:00.163Z,20.02
2023-09-06T02:08:55.255Z,20.00
2023-09-06T02:10:52.884Z,19.93
2023-09-06T02:12:46.136Z,19.89
2023-09-06T02:14:41.294Z,19.84
2023-09-06T02:16:36.370Z,19.78
2023-09-06T02:18:32.086Z,19.74
2023-09-06T02:20:25.910Z,19.61
2023-09-06T02:22:21.538Z,19.37
2023-09-06T02:24:17.121Z,19.34
2023-09-06T02:26:14.967Z,19.25
2023-09-06T02:28:10.390Z,19.32
2023-09-06T02:30:06.231Z,19.31
2023-09-06T02:32:01.536Z,19.09
2023-09-06T02:33:54.597Z,19.18
2023-09-06T02:35:50.974Z,19.09
2023-09-06T02:37:43.535Z,19.05
2023-09-06T02:39:39.930Z,19.08
2023-09-06T02:41:37.585Z,19.11
2023-09-06T02:43:33.211Z,19.14
2023-09-06T02:45:38.144Z,19.11
2023-09-06T02:47:52.338Z,19.03
2023-09-06T02:49:49.260Z,18.97
2023-09-06T02:51:48.290Z,19.03
2023-09-06T02:53:45.558Z,18.99
2023-09-06T02:55:38.547Z,18.94
2023-09-06T02:57:36.490Z,18.96
2023-09-06T02:59:29.538Z,18.95
2023-09-06T03:01:24.752Z,18.83
2023-09-06T03:03:17.623Z,18.87
2023-09-06T03:05:18.865Z,18.75
2023-09-06T03:07:16.385Z,18.69
2023-09-06T03:09:11.921Z,18.80
2023-09-06T03:11:08.731Z,18.84
2023-09-06T03:13:06.911Z,18.98
2023-09-06T03:15:02.355Z,19.07
2023-09-06T03:16:54.899Z,19.09
2023-09-06T03:18:50.482Z,19.13
2023-09-06T03:20:46.832Z,19.16
2023-09-06T03:22:39.537Z,19.17
2023-09-06T03:24:34.669Z,19.17
2023-09-06T03:26:30.569Z,19.16
2023-09-06T03:28:30.106Z,19.16
2023-09-06T03:30:25.583Z,19.11
2023-09-06T03:32:22.189Z,19.09
2023-09-06T03:34:17.589Z,19.07
2023-09-06T03:36:14.058Z,19.08
2023-09-06T03:38:10.694Z,19.06
2023-09-06T03:40:13.942Z,19.05
2023-09-06T03:42:11.058Z,19.02
2023-09-06T03:44:06.320Z,19.02
2023-09-06T03:46:06.394Z,19.01
2023-09-06T03:47:59.219Z,18.99
2023-09-06T03:49:54.338Z,18.97
2023-09-06T03:51:50.028Z,18.95
2023-09-06T03:53:47.814Z,18.91
2023-09-06T03:55:43.199Z,18.88
2023-09-06T03:57:38.597Z,18.88
2023-09-06T03:59:37.207Z,18.88
2023-09-06T04:01:34.391Z,18.89
2023-09-06T04:03:28.163Z,18.88
2023-09-06T04:05:27.145Z,18.87
2023-09-06T04:07:26.815Z,18.85
2023-09-06T04:09:28.948Z,18.82
2023-09-06T04:11:21.854Z,18.79
2023-09-06T04:13:18.126Z,18.81
2023-09-06T04:15:14.328Z,18.78
2023-09-06T04:17:09.813Z,18.73
2023-09-06T04:19:06.579Z,18.67
2023-09-06T04:21:01.528Z,18.63
2023-09-06T04:22:57.370Z,18.62
2023-09-06T04:24:52.411Z,18.64
2023-09-06T04:26:50.223Z,18.65
2023-09-06T04:28:42.814Z,18.64
2023-09-06T04:30:42.106Z,18.58
2023-09-06T04:32:35.790Z,18.49
2023-09-06T04:34:30.828Z,18.45
2023-09-06T04:36:23.913Z,18.46
2023-09-06T04:38:20.840Z,18.45
2023-09-06T04:40:20.591Z,18.41
2023-09-06T04:42:13.432Z,18.40
2023-09-06T04:44:11.458Z,18.39
2023-09-06T04:46:09.878Z,18.40
2023-09-06T04:48:05.081Z,18.40
2023-09-06T04:49:57.695Z,18.38
2023-09-06T04:51:54.095Z,18.36
2023-09-06T04:53:50.296Z,18.35
2023-09-06T04:55:45.966Z,18.32
2023-09-06T04:57:38.441Z,18.27
2023-09-06T04:59:34.739Z,18.23
2023-09-06T05:01:32.852Z,18.23
2023-09-06T05:03:28.054Z,18.23
2023-09-06T05:05:23.564Z,18.23
2023-09-06T05:07:16.589Z,18.23
2023-09-06T05:09:12.079Z,18.21
2023-09-06T05:11:08.081Z,18.21
2023-09-06T05:13:00.572Z,18.18
2023-09-06T05:14:57.203Z,18.18
2023-09-06T05:16:55.243Z,18.15
2023-09-06T05:18:50.422Z,18.12
2023-09-06T05:20:46.404Z,18.09
2023-09-06T05:22:38.910Z,18.09
2023-09-06T05:24:33.996Z,18.10
2023-09-06T05:26:30.041Z,18.10
2023-09-06T05:28:25.211Z,18.12
2023-09-06T05:30:20.792Z,18.11
2023-09-06T05:32:20.215Z,18.10
2023-09-06T05:34:15.307Z,18.11
2023-09-06T05:36:10.699Z,18.12
2023-09-06T05:38:07.146Z,18.11
2023-09-06T05:40:00.052Z,18.13
2023-09-06T05:41:57.957Z,18.17
2023-09-06T05:43:53.277Z,18.18
2023-09-06T05:45:49.138Z,18.22
2023-09-06T05:47:49.326Z,18.25
2023-09-06T05:49:48.207Z,18.18
2023-09-06T05:51:43.700Z,18.20
2023-09-06T05:53:38.936Z,18.20
2023-09-06T05:55:34.388Z,18.24
2023-09-06T05:57:29.599Z,18.16
2023-09-06T05:59:24.756Z,18.22
2023-09-06T06:01:19.229Z,18.24
2023-09-06T06:03:16.977Z,18.25
2023-09-06T06:05:13.521Z,18.30
2023-09-06T06:07:09.254Z,18.33
2023-09-06T06:09:05.265Z,18.26
2023-09-06T06:11:02.057Z,18.25
2023-09-06T06:12:57.412Z,18.15
2023-09-06T06:14:54.021Z,18.07
2023-09-06T06:16:49.197Z,18.03
2023-09-06T06:18:48.652Z,17.95
2023-09-06T06:20:44.619Z,17.94
2023-09-06T06:22:41.844Z,17.96
2023-09-06T06:24:35.928Z,17.91
2023-09-06T06:26:31.041Z,17.91
2023-09-06T06:28:26.296Z,17.89
2023-09-06T06:30:22.207Z,17.88
2023-09-06T06:32:14.773Z,17.86
2023-09-06T06:34:15.338Z,17.83
2023-09-06T06:36:10.846Z,17.79
2023-09-06T06:38:06.026Z,17.79
2023-09-06T06:40:02.557Z,17.84
2023-09-06T06:41:57.610Z,17.98
2023-09-06T06:43:53.624Z,18.08
2023-09-06T06:45:50.626Z,18.06
2023-09-06T06:47:45.777Z,18.07
2023-09-06T06:49:44.708Z,18.08
2023-09-06T06:51:43.005Z,18.09
2023-09-06T06:53:36.109Z,18.09
2023-09-06T06:55:31.660Z,18.11
2023-09-06T06:57:26.761Z,18.15
2023-09-06T06:59:21.873Z,18.24
2023-09-06T07:01:14.805Z,18.29
2023-09-06T07:03:11.280Z,18.33
2023-09-06T07:05:09.630Z,18.35
2023-09-06T07:07:04.991Z,18.38
2023-09-06T07:09:01.031Z,18.41
2023-09-06T07:10:53.535Z,18.48
2023-09-06T07:12:49.697Z,18.56
2023-09-06T07:14:44.768Z,18.61
2023-09-06T07:16:41.136Z,18.61
2023-09-06T07:18:33.642Z,18.67
2023-09-06T07:20:31.294Z,18.76
2023-09-06T07:22:26.716Z,18.85
2023-09-06T07:24:21.776Z,18.88
2023-09-06T07:26:17.310Z,18.91
2023-09-06T07:28:09.823Z,18.99
2023-09-06T07:30:04.916Z,19.01
2023-09-06T07:32:00.319Z,19.01
2023-09-06T07:33:55.767Z,19.07
2023-09-06T07:35:50.938Z,19.19
2023-09-06T07:37:46.614Z,19.18
2023-09-06T07:39:41.692Z,19.21
2023-09-06T07:41:34.557Z,19.25
2023-09-06T07:43:30.057Z,19.28
2023-09-06T07:45:25.310Z,19.34
2023-09-06T07:47:20.727Z,19.43
2023-09-06T07:49:13.514Z,19.46
2023-09-06T07:51:13.490Z,19.55
2023-09-06T07:53:10.014Z,19.55
2023-09-06T07:55:05.429Z,19.62
2023-09-06T07:57:00.758Z,19.70
2023-09-06T07:58:56.488Z,19.70
2023-09-06T08:01:06.159Z,19.78
2023-09-06T08:03:07.055Z,19.89
2023-09-06T08:05:02.802Z,19.94
2023-09-06T08:07:01.151Z,19.96
2023-09-06T08:08:54.368Z,20.02
2023-09-06T08:10:49.987Z,20.04
2023-09-06T08:12:42.912Z,20.12
2023-09-06T08:14:40.326Z,20.20
2023-09-06T08:16:36.149Z,20.27
2023-09-06T08:18:30.461Z,20.36
2023-09-06T08:20:26.282Z,20.37
2023-09-06T08:22:35.585Z,20.48
2023-09-06T08:24:40.938Z,20.44
2023-09-06T08:26:38.389Z,20.57
2023-09-06T08:28:34.405Z,20.66
2023-09-06T08:30:29.845Z,20.68
2023-09-06T08:32:23.074Z,20.80
2023-09-06T08:34:19.078Z,20.94
2023-09-06T08:36:14.588Z,20.92
2023-09-06T08:38:14.228Z,20.98
2023-09-06T08:40:11.777Z,21.11
2023-09-06T08:42:08.555Z,21.17
2023-09-06T08:44:07.765Z,21.33
2023-09-06T08:46:06.074Z,21.38
2023-09-06T08:48:02.417Z,21.47
2023-09-06T08:49:56.037Z,21.48
2023-09-06T08:51:51.996Z,21.51
2023-09-06T08:53:51.782Z,21.62
2023-09-06T08:55:48.153Z,21.68
2023-09-06T08:57:43.136Z,21.76
2023-09-06T08:59:38.576Z,21.81
2023-09-06T09:01:34.010Z,21.86
2023-09-06T09:03:29.970Z,22.01
2023-09-06T09:05:25.545Z,22.03
2023-09-06T09:07:19.789Z,22.13
2023-09-06T09:09:22.498Z,22.22
2023-09-06T09:11:19.898Z,22.28
2023-09-06T09:13:13.419Z,22.42
2023-09-06T09:15:21.264Z,22.54
2023-09-06T09:17:18.688Z,22.66
2023-09-06T09:19:14.152Z,22.86
2023-09-06T09:21:11.736Z,23.23
2023-09-06T09:23:07.774Z,23.15
2023-09-06T09:25:15.542Z,23.03
2023-09-06T09:27:11.678Z,23.06
2023-09-06T09:29:07.496Z,23.09
2023-09-06T09:31:00.273Z,23.22
2023-09-06T09:33:05.788Z,23.30
2023-09-06T09:34:58.860Z,23.40
2023-09-06T09:36:54.883Z,23.51
2023-09-06T09:38:52.611Z,23.68
2023-09-06T09:40:53.345Z,23.89
2023-09-06T09:42:56.747Z,23.83
2023-09-06T09:45:04.558Z,24.09
2023-09-06T09:46:58.640Z,24.29
2023-09-06T09:48:54.531Z,24.24
2023-09-06T09:50:55.575Z,24.46
2023-09-06T09:52:52.479Z,24.82
2023-09-06T09:54:52.960Z,24.94
2023-09-06T09:56:58.082Z,24.70
2023-09-06T09:58:57.168Z,24.71
2023-09-06T10:00:53.655Z,24.75
2023-09-06T10:02:52.545Z,24.95
2023-09-06T10:04:48.836Z,25.34
2023-09-06T10:06:44.892Z,25.30
2023-09-06T10:08:46.126Z,25.19
2023-09-06T10:10:44.955Z,25.26
2023-09-06T10:12:45.737Z,25.78
2023-09-06T10:14:46.107Z,25.66
2023-09-06T10:16:42.710Z,25.59
2023-09-06T10:18:41.786Z,25.66
2023-09-06T10:20:39.782Z,25.70
2023-09-06T10:22:35.590Z,25.67
2023-09-06T10:24:37.314Z,25.76
2023-09-06T10:26:38.396Z,26.33
2023-09-06T10:28:36.815Z,26.24
2023-09-06T10:30:46.934Z,26.18
2023-09-06T10:32:44.195Z,26.29
2023-09-06T10:34:47.253Z,26.45
2023-09-06T10:36:53.747Z,27.02
2023-09-06T10:39:19.547Z,27.40
2023-09-06T10:41:12.472Z,27.26
2023-09-06T10:43:09.303Z,27.73
2023-09-06T10:45:15.338Z,27.68
2023-09-06T10:47:30.062Z,27.97
2023-09-06T10:49:30.555Z,27.87
2023-09-06T10:51:28.830Z,28.26
2023-09-06T10:53:24.158Z,27.90
2023-09-06T10:55:20.021Z,28.34
2023-09-06T10:57:17.197Z,28.60
2023-09-06T10:59:21.092Z,28.46
2023-09-06T11:01:22.071Z,28.84
2023-09-06T11:03:34.956Z,29.06
2023-09-06T11:05:36.694Z,28.92
2023-09-06T11:07:49.137Z,28.62
2023-09-06T11:09:50.393Z,28.89
2023-09-06T11:11:46.560Z,28.77
2023-09-06T11:13:44.522Z,29.08
2023-09-06T11:15:38.010Z,29.85
2023-09-06T11:17:36.354Z,29.85
2023-09-06T11:19:30.490Z,30.34
2023-09-06T11:45:49.958Z,31.94
2023-09-06T12:04:29.948Z,32.85
2023-09-06T12:06:31.256Z,31.32
2023-09-06T12:08:46.623Z,31.08
2023-09-06T12:10:52.056Z,31.26
2023-09-06T12:13:08.976Z,31.88
2023-09-06T12:15:10.200Z,32.02
2023-09-06T12:17:09.437Z,31.74
2023-09-06T12:19:05.600Z,31.97
2023-09-06T12:21:10.489Z,31.96
2023-09-06T12:23:16.852Z,32.20
2023-09-06T12:25:13.117Z,32.65
2023-09-06T12:27:12.604Z,32.60
2023-09-06T12:29:15.463Z,32.71
2023-09-06T12:31:17.665Z,33.24
2023-09-06T12:33:35.684Z,33.58
2023-09-06T12:35:44.878Z,33.51
2023-09-06T12:37:52.710Z,33.77
2023-09-06T12:56:36.251Z,33.92
2023-09-06T13:03:16.497Z,34.30
2023-09-06T13:09:14.573Z,34.70
2023-09-06T13:23:35.501Z,35.13
2023-09-06T13:26:08.555Z,35.51
2023-09-06T13:46:17.072Z,35.59
2023-09-06T13:48:40.454Z,35.82
2023-09-06T13:54:01.599Z,36.63
2023-09-06T13:56:14.393Z,36.45
2023-09-06T13:58:13.193Z,36.29
2023-09-06T14:00:13.019Z,36.27
2023-09-06T14:02:18.593Z,36.30
2023-09-06T14:04:13.737Z,35.72
2023-09-06T14:06:27.329Z,36.35
2023-09-06T14:08:34.842Z,36.78
2023-09-06T14:10:32.389Z,36.59
2023-09-06T14:12:45.380Z,36.55
2023-09-06T14:14:41.056Z,36.31
2023-09-06T14:16:46.538Z,36.88
2023-09-06T14:18:51.065Z,36.82
2023-09-06T14:20:50.381Z,36.70
2023-09-06T14:22:45.987Z,36.69
2023-09-06T14:24:42.048Z,36.78
2023-09-06T14:26:38.918Z,36.82
2023-09-06T14:28:53.381Z,36.97
2023-09-06T14:31:26.555Z,37.30
2023-09-06T14:33:35.679Z,37.42
2023-09-06T14:36:12.869Z,37.67
2023-09-06T14:38:35.737Z,37.49
2023-09-06T14:40:46.343Z,37.39
2023-09-06T14:42:48.207Z,37.98
2023-09-06T14:44:46.572Z,37.98
2023-09-06T14:46:45.518Z,38.07
2023-09-06T14:48:41.698Z,38.09
2023-09-06T14:50:39.845Z,37.98
2023-09-06T14:52:35.112Z,37.91
2023-09-06T14:54:30.688Z,38.02
2023-09-06T14:56:27.351Z,38.15
2023-09-06T14:58:24.513Z,38.11
2023-09-06T15:00:21.361Z,38.10
2023-09-06T15:02:19.529Z,38.10
2023-09-06T15:04:15.728Z,38.02
2023-09-06T15:06:14.906Z,38.07
2023-09-06T15:08:10.462Z,38.25
2023-09-06T15:10:12.668Z,38.13
2023-09-06T15:12:09.459Z,38.19
2023-09-06T15:14:02.836Z,38.14
2023-09-06T15:15:58.745Z,38.28
2023-09-06T15:17:51.558Z,38.08
2023-09-06T15:19:48.596Z,37.97
2023-09-06T15:21:46.937Z,38.10
2023-09-06T15:23:44.132Z,38.09
2023-09-06T15:25:40.694Z,38.30
2023-09-06T15:27:34.015Z,38.18
2023-09-06T15:29:31.228Z,38.34
2023-09-06T15:31:43.047Z,38.00
2023-09-06T15:33:39.693Z,37.94
2023-09-06T15:35:35.294Z,37.81
2023-09-06T15:37:38.716Z,37.76
2023-09-06T15:39:43.044Z,37.53
2023-09-06T15:41:41.188Z,37.47
2023-09-06T15:43:51.928Z,37.39
2023-09-06T15:45:55.145Z,37.54
2023-09-06T15:47:51.312Z,37.56
2023-09-06T15:49:56.988Z,37.45
2023-09-06T15:51:59.320Z,37.07
2023-09-06T15:53:57.363Z,37.12
2023-09-06T15:55:55.798Z,37.20
2023-09-06T15:57:52.773Z,37.14
2023-09-06T15:59:48.321Z,37.14
2023-09-06T16:01:46.572Z,37.06
2023-09-06T16:03:45.421Z,36.82
2023-09-06T16:05:41.018Z,36.91
2023-09-06T16:07:37.534Z,36.88
2023-09-06T16:09:41.014Z,36.88
2023-09-06T16:11:38.380Z,36.79
2023-09-06T16:13:34.096Z,36.81
2023-09-06T16:15:28.383Z,36.74
2023-09-06T16:17:23.887Z,36.85
2023-09-06T16:19:19.906Z,36.76
2023-09-06T16:21:13.021Z,36.70
2023-09-06T16:23:08.246Z,36.67
2023-09-06T16:25:09.248Z,36.54
2023-09-06T16:27:05.184Z,36.43
2023-09-06T16:29:08.311Z,36.49
2023-09-06T16:31:05.819Z,36.48
2023-09-06T16:33:01.349Z,36.30
2023-09-06T16:34:57.058Z,36.35
2023-09-06T16:36:49.760Z,36.23
2023-09-06T16:38:46.133Z,36.17
2023-09-06T16:40:44.358Z,36.26
2023-09-06T16:42:39.940Z,36.18
2023-09-06T16:44:33.956Z,36.17
2023-09-06T16:46:30.332Z,36.05
2023-09-06T16:48:23.188Z,35.98
2023-09-06T16:50:21.408Z,35.26
2023-09-06T16:52:17.445Z,35.41
2023-09-06T16:54:12.817Z,35.68
2023-09-06T16:56:09.002Z,35.60
2023-09-06T16:58:08.132Z,35.63
2023-09-06T17:00:06.002Z,35.56
2023-09-06T17:02:01.672Z,35.52
2023-09-06T17:03:55.014Z,35.39
2023-09-06T17:05:50.666Z,35.32
2023-09-06T17:07:47.066Z,35.28
2023-09-06T17:09:42.715Z,35.23
2023-09-06T17:11:42.783Z,35.22
2023-09-06T17:13:37.998Z,35.25
2023-09-06T17:15:33.922Z,35.13
2023-09-06T17:17:57.978Z,35.09
2023-09-06T17:19:56.676Z,34.90
2023-09-06T17:21:52.108Z,34.93
2023-09-06T17:24:02.355Z,34.95
2023-09-06T17:26:08.544Z,34.80
2023-09-06T17:28:09.123Z,34.87
2023-09-06T17:30:12.060Z,34.69
2023-09-06T17:32:08.676Z,34.54
2023-09-06T17:34:04.500Z,34.46
2023-09-06T17:35:58.034Z,34.31
2023-09-06T17:37:56.217Z,34.22
2023-09-06T17:39:52.575Z,34.24
2023-09-06T17:41:49.925Z,34.09
2023-09-06T17:43:48.456Z,33.87
2023-09-06T17:45:41.914Z,33.75
2023-09-06T17:47:40.471Z,33.57
2023-09-06T17:49:36.307Z,33.48
2023-09-06T17:51:31.878Z,33.42
2023-09-06T17:53:28.344Z,33.30
2023-09-06T17:55:26.584Z,33.31
2023-09-06T17:57:22.870Z,33.26
2023-09-06T17:59:25.309Z,33.19
2023-09-06T18:01:23.105Z,33.11
2023-09-06T18:03:20.116Z,33.06
2023-09-06T18:05:15.751Z,33.02
2023-09-06T18:07:12.854Z,32.96
2023-09-06T18:09:10.361Z,32.91
2023-09-06T18:11:08.180Z,32.88
2023-09-06T18:13:04.403Z,32.79
2023-09-06T18:15:03.732Z,32.67
2023-09-06T18:16:59.845Z,32.58
2023-09-06T18:18:55.975Z,32.54
2023-09-06T18:20:48.759Z,31.98
2023-09-06T18:22:43.884Z,32.01
2023-09-06T18:24:41.421Z,31.98
2023-09-06T18:26:36.672Z,31.98
2023-09-06T18:28:32.809Z,31.95
2023-09-06T18:30:32.023Z,31.90
2023-09-06T18:32:24.574Z,31.88
2023-09-06T18:34:23.051Z,31.76
2023-09-06T18:36:18.853Z,31.71
2023-09-06T18:38:13.513Z,31.69
2023-09-06T18:40:14.740Z,31.36
2023-09-06T18:42:10.577Z,31.43
2023-09-06T18:44:07.500Z,31.41
2023-09-06T18:46:06.324Z,31.33
2023-09-06T18:47:59.412Z,30.85
2023-09-06T18:49:55.638Z,31.03
2023-09-06T18:52:11.679Z,31.03
2023-09-06T18:54:09.044Z,30.92
2023-09-06T18:56:02.795Z,30.94
2023-09-06T18:58:06.484Z,30.63
2023-09-06T18:59:59.376Z,30.72
2023-09-06T19:02:00.628Z,30.80
2023-09-06T19:04:10.724Z,30.69
2023-09-06T19:06:21.848Z,30.65
2023-09-06T19:27:05.058Z,30.10
2023-09-06T19:29:03.691Z,29.94
2023-09-06T19:31:10.190Z,29.85
2023-09-06T19:33:10.309Z,29.69
2023-09-06T19:35:12.176Z,29.66
2023-09-06T19:37:07.732Z,29.66
2023-09-06T19:39:01.192Z,29.41
2023-09-06T19:40:57.179Z,29.34
2023-09-06T19:42:56.069Z,29.19
2023-09-06T19:44:48.654Z,29.12
2023-09-06T19:46:43.862Z,29.14
2023-09-06T19:48:54.669Z,29.12
2023-09-06T19:50:55.087Z,28.97
2023-09-06T19:52:51.898Z,28.89
2023-09-06T19:54:45.132Z,28.70
2023-09-06T19:56:40.360Z,28.62
2023-09-06T19:58:36.349Z,28.66
2023-09-06T20:00:31.713Z,28.67
2023-09-06T20:02:24.743Z,28.70
2023-09-06T20:04:21.508Z,28.74
2023-09-06T20:06:16.995Z,28.75
2023-09-06T20:08:12.407Z,28.75
2023-09-06T20:10:09.415Z,28.73
2023-09-06T20:12:04.859Z,28.67
2023-09-06T20:14:03.419Z,28.55
2023-09-06T20:15:59.208Z,28.48
2023-09-06T20:17:56.166Z,28.28
2023-09-06T20:19:51.664Z,28.26
2023-09-06T20:21:47.445Z,28.20
2023-09-06T20:23:42.681Z,28.18
2023-09-06T20:25:36.222Z,28.13
2023-09-06T20:27:31.707Z,28.05
2023-09-06T20:29:29.728Z,27.86
2023-09-06T20:31:25.474Z,27.83
2023-09-06T20:33:23.038Z,27.84
2023-09-06T20:35:20.427Z,27.83
2023-09-06T20:37:16.185Z,27.76
2023-09-06T20:39:11.702Z,27.73
2023-09-06T20:41:09.662Z,27.59
2023-09-06T20:43:02.682Z,27.51
2023-09-06T20:45:00.739Z,27.45
2023-09-06T20:46:56.209Z,27.43
2023-09-06T20:48:49.329Z,27.21
2023-09-06T20:50:44.728Z,27.23
2023-09-06T20:52:39.876Z,27.20
2023-09-06T20:54:32.860Z,27.11
2023-09-06T20:56:28.802Z,27.05
2023-09-06T20:58:24.895Z,27.04
2023-09-06T21:00:21.783Z,27.07
2023-09-06T21:02:34.360Z,26.95
2023-09-06T21:05:31.881Z,26.82
2023-09-06T21:07:12.597Z,26.83
2023-09-06T21:10:03.840Z,26.84
2023-09-06T21:11:57.170Z,26.71
2023-09-06T21:13:52.791Z,26.70
2023-09-06T21:15:49.407Z,26.64
2023-09-06T21:17:44.988Z,26.59
2023-09-06T21:19:40.710Z,26.53
2023-09-06T21:21:33.301Z,26.47
2023-09-06T21:23:28.979Z,26.45
2023-09-06T21:25:24.190Z,26.34
2023-09-06T21:27:16.923Z,26.29
2023-09-06T21:29:25.938Z,26.29
2023-09-06T21:31:27.237Z,26.27
2023-09-06T21:33:22.796Z,26.25
2023-09-06T21:35:18.244Z,26.20
2023-09-06T21:37:10.704Z,26.17
2023-09-06T21:39:06.871Z,26.15
2023-09-06T21:41:02.819Z,26.10
2023-09-06T21:43:14.583Z,26.06
2023-09-06T21:45:14.294Z,26.04
2023-09-06T21:47:12.394Z,26.01
2023-09-06T21:49:05.097Z,26.03
2023-09-06T21:51:10.753Z,25.92
2023-09-06T21:53:07.789Z,25.92
2023-09-06T21:55:00.324Z,25.81
2023-09-06T21:56:55.933Z,25.82
2023-09-06T21:58:51.409Z,25.76
2023-09-06T22:00:46.646Z,25.72
2023-09-06T22:02:45.167Z,25.62
2023-09-06T22:04:40.875Z,25.61
2023-09-06T22:06:34.309Z,25.55
2023-09-06T22:08:29.933Z,25.51
2023-09-06T22:10:25.774Z,25.47
2023-09-06T22:12:18.410Z,25.46
2023-09-06T22:14:16.752Z,25.44
2023-09-06T22:16:12.173Z,25.44
2023-09-06T22:18:10.521Z,25.45
2023-09-06T22:20:06.771Z,25.37
2023-09-06T22:22:02.273Z,25.35
2023-09-06T22:23:54.845Z,25.33
2023-09-06T22:26:00.278Z,25.24
2023-09-06T22:27:58.546Z,25.13
2023-09-06T22:29:53.901Z,25.00
2023-09-06T22:31:47.590Z,24.93
2023-09-06T22:33:45.901Z,24.89
2023-09-06T22:35:41.035Z,24.79
2023-09-06T22:37:36.346Z,24.81
2023-09-06T22:39:31.823Z,24.78
2023-09-06T22:41:26.963Z,24.77
2023-09-06T22:43:22.391Z,24.70
2023-09-06T22:45:15.599Z,24.70
2023-09-06T22:47:12.277Z,24.64
2023-09-06T22:49:10.373Z,24.60
2023-09-06T22:51:06.206Z,24.62
2023-09-06T22:53:02.679Z,24.51
2023-09-06T22:54:58.289Z,24.47
2023-09-06T22:56:54.184Z,24.42
2023-09-06T22:58:46.796Z,24.40
2023-09-06T23:00:44.456Z,24.34
2023-09-06T23:02:40.082Z,24.33
2023-09-06T23:04:40.104Z,24.25
2023-09-06T23:06:33.431Z,24.18
2023-09-06T23:08:29.197Z,24.17
2023-09-06T23:10:25.356Z,24.09
2023-09-06T23:12:21.498Z,24.01
2023-09-06T23:14:18.770Z,23.94
2023-09-06T23:16:17.719Z,23.89
2023-09-06T23:18:13.385Z,23.83
2023-09-06T23:20:14.981Z,23.75
2023-09-06T23:22:13.633Z,23.67
2023-09-06T23:24:13.180Z,23.70
2023-09-06T23:26:09.694Z,23.70
2023-09-06T23:28:12.746Z,23.63
2023-09-06T23:30:17.520Z,23.63
2023-09-06T23:32:16.650Z,23.58
2023-09-06T23:34:11.388Z,23.54
2023-09-06T23:36:10.176Z,23.45
2023-09-06T23:38:08.541Z,23.42
2023-09-06T23:40:13.057Z,23.37
2023-09-06T23:42:11.322Z,23.40
2023-09-06T23:44:09.009Z,23.37
2023-09-06T23:46:05.611Z,23.36
2023-09-06T23:48:01.675Z,23.29
2023-09-06T23:49:54.541Z,23.27
2023-09-06T23:51:52.465Z,23.22
2023-09-06T23:53:45.590Z,23.18
2023-09-06T23:55:40.825Z,23.15
2023-09-06T23:57:33.454Z,23.07
2023-09-06T23:59:28.871Z,23.00
